createdAt,value
2019-03-26T00:00:29.642Z,15.40
2019-03-26T00:03:00.237Z,15.10
2019-03-26T00:05:30.864Z,16.57
2019-03-26T00:08:01.475Z,16.03
2019-03-26T00:10:32.077Z,13.27
2019-03-26T00:13:02.709Z,13.00
2019-03-26T00:15:33.331Z,16.63
2019-03-26T00:18:04.014Z,14.90
2019-03-26T00:20:34.704Z,18.90
2019-03-26T00:23:05.307Z,13.43
2019-03-26T00:25:36.832Z,13.30
2019-03-26T00:28:07.454Z,11.83
2019-03-26T00:30:38.761Z,11.83
2019-03-26T00:33:09.503Z,14.13
2019-03-26T00:35:40.207Z,14.23
2019-03-26T00:38:10.821Z,14.27
2019-03-26T00:40:44.073Z,15.20
2019-03-26T00:43:18.093Z,10.37
2019-03-26T00:45:48.776Z,14.47
2019-03-26T00:48:19.339Z,13.93
2019-03-26T00:50:49.956Z,11.27
2019-03-26T00:53:20.542Z,11.23
2019-03-26T00:55:51.211Z,10.13
2019-03-26T00:58:21.777Z,16.10
2019-03-26T01:00:52.457Z,13.50
2019-03-26T01:03:23.113Z,12.07
2019-03-26T01:05:53.896Z,11.77
2019-03-26T01:08:24.536Z,9.37
2019-03-26T01:10:55.213Z,12.83
2019-03-26T01:13:25.863Z,10.27
2019-03-26T01:15:56.456Z,9.87
2019-03-26T01:18:27.089Z,10.10
2019-03-26T01:20:57.696Z,11.10
2019-03-26T01:23:28.280Z,13.87
2019-03-26T01:25:58.879Z,11.80
2019-03-26T01:28:29.445Z,14.00
2019-03-26T01:31:00.104Z,12.03
2019-03-26T01:33:30.680Z,9.83
2019-03-26T01:36:01.277Z,12.63
2019-03-26T01:38:31.843Z,12.77
2019-03-26T01:41:02.541Z,10.23
2019-03-26T01:43:33.360Z,16.50
2019-03-26T01:46:04.307Z,11.10
2019-03-26T01:48:34.879Z,10.57
2019-03-26T01:51:05.473Z,11.50
2019-03-26T01:53:36.042Z,11.37
2019-03-26T01:56:06.645Z,12.70
2019-03-26T01:58:37.221Z,11.57
2019-03-26T02:01:07.830Z,8.27
2019-03-26T02:03:38.385Z,9.17
2019-03-26T02:06:09.009Z,12.07
2019-03-26T02:08:39.659Z,13.40
2019-03-26T02:11:10.727Z,14.23
2019-03-26T02:13:44.377Z,9.63
2019-03-26T02:16:15.063Z,13.27
2019-03-26T02:18:45.744Z,13.30
2019-03-26T02:21:27.777Z,15.17
2019-03-26T02:23:58.384Z,11.37
2019-03-26T02:26:29.008Z,10.67
2019-03-26T02:28:59.675Z,14.47
2019-03-26T02:31:30.305Z,16.07
2019-03-26T02:34:00.938Z,12.27
2019-03-26T02:36:31.584Z,14.10
2019-03-26T02:39:02.791Z,11.97
2019-03-26T02:41:37.459Z,12.77
2019-03-26T02:44:05.735Z,10.50
2019-03-26T02:46:36.465Z,11.70
2019-03-26T02:49:08.791Z,9.43
2019-03-26T02:51:39.576Z,11.70
2019-03-26T02:54:10.206Z,10.70
2019-03-26T02:56:40.803Z,13.83
2019-03-26T02:59:22.602Z,10.50
2019-03-26T03:01:53.188Z,11.77
2019-03-26T03:04:23.847Z,12.47
2019-03-26T03:06:54.589Z,10.00
2019-03-26T03:09:25.179Z,8.80
2019-03-26T03:11:55.945Z,11.20
2019-03-26T03:14:30.266Z,10.30
2019-03-26T03:17:01.019Z,8.90
2019-03-26T03:19:31.597Z,11.30
2019-03-26T03:22:02.210Z,9.30
2019-03-26T03:24:32.946Z,10.17
2019-03-26T03:27:04.151Z,8.97
2019-03-26T03:29:34.802Z,9.77
2019-03-26T03:32:08.306Z,7.90
2019-03-26T03:34:38.890Z,10.90
2019-03-26T03:37:09.542Z,10.97
2019-03-26T03:39:40.102Z,13.20
2019-03-26T03:42:10.708Z,10.43
2019-03-26T03:44:41.318Z,11.47
2019-03-26T03:47:13.961Z,10.93
2019-03-26T03:49:45.722Z,13.00
2019-03-26T03:52:17.968Z,9.70
2019-03-26T03:54:51.082Z,8.83
2019-03-26T03:57:23.453Z,10.33
2019-03-26T03:59:56.257Z,12.40
2019-03-26T04:02:27.210Z,9.17
2019-03-26T04:04:57.886Z,7.83
2019-03-26T04:07:28.561Z,12.97
2019-03-26T04:09:59.593Z,9.67
2019-03-26T04:12:30.247Z,7.67
2019-03-26T04:15:00.853Z,9.67
2019-03-26T04:17:31.521Z,7.97
2019-03-26T04:20:02.147Z,10.50
2019-03-26T04:22:33.082Z,10.40
2019-03-26T04:25:03.791Z,6.77
2019-03-26T04:27:37.072Z,7.47
2019-03-26T04:30:08.366Z,9.17
2019-03-26T04:32:40.661Z,8.53
2019-03-26T04:35:11.699Z,10.73
2019-03-26T04:37:42.329Z,11.53
2019-03-26T04:40:12.988Z,6.70
2019-03-26T04:42:43.572Z,6.77
2019-03-26T04:45:14.202Z,9.13
2019-03-26T04:47:44.894Z,10.60
2019-03-26T04:50:15.545Z,6.00
2019-03-26T04:52:46.236Z,11.07
2019-03-26T04:55:16.906Z,7.43
2019-03-26T04:57:47.580Z,9.30
2019-03-26T05:00:21.369Z,6.47
2019-03-26T05:02:52.060Z,6.53
2019-03-26T05:05:23.958Z,6.60
2019-03-26T05:07:57.467Z,7.50
2019-03-26T05:10:28.429Z,8.07
2019-03-26T05:12:59.044Z,6.43
2019-03-26T05:15:29.705Z,9.87
2019-03-26T05:18:19.096Z,8.30
2019-03-26T05:20:49.668Z,10.33
2019-03-26T05:23:20.292Z,10.50
2019-03-26T05:25:50.864Z,8.47
2019-03-26T05:28:21.542Z,9.53
2019-03-26T05:30:52.104Z,8.93
2019-03-26T05:33:22.797Z,9.07
2019-03-26T05:35:53.800Z,10.10
2019-03-26T05:38:27.566Z,8.13
2019-03-26T05:40:58.248Z,8.37
2019-03-26T05:43:28.871Z,7.17
2019-03-26T05:45:59.527Z,9.83
2019-03-26T05:48:30.185Z,7.00
2019-03-26T05:51:00.890Z,10.93
2019-03-26T05:53:31.509Z,9.93
2019-03-26T05:56:03.861Z,15.23
2019-03-26T05:58:34.559Z,12.87
2019-03-26T06:01:05.295Z,9.87
2019-03-26T06:03:36.088Z,8.93
2019-03-26T06:06:06.703Z,11.87
2019-03-26T06:08:37.830Z,14.63
2019-03-26T06:11:10.380Z,10.03
2019-03-26T06:13:41.119Z,9.03
2019-03-26T06:16:11.792Z,11.63
2019-03-26T06:18:42.419Z,14.40
2019-03-26T06:21:13.012Z,10.67
2019-03-26T06:23:43.659Z,12.43
2019-03-26T06:26:14.377Z,12.47
2019-03-26T06:28:45.200Z,13.03
2019-03-26T06:31:15.811Z,9.87
2019-03-26T06:33:46.782Z,10.37
2019-03-26T06:36:17.663Z,13.20
2019-03-26T06:38:48.278Z,9.93
2019-03-26T06:41:19.190Z,14.13
2019-03-26T06:43:49.921Z,12.00
2019-03-26T06:46:20.585Z,14.40
2019-03-26T06:48:51.328Z,14.40
2019-03-26T06:51:22.102Z,14.23
2019-03-26T06:53:52.854Z,14.60
2019-03-26T06:56:23.609Z,13.47
2019-03-26T06:58:54.236Z,13.80
2019-03-26T07:01:26.346Z,15.10
2019-03-26T07:03:57.482Z,12.53
2019-03-26T07:06:28.096Z,11.73
2019-03-26T07:08:58.717Z,15.60
2019-03-26T07:11:29.472Z,13.97
2019-03-26T07:14:00.521Z,13.47
2019-03-26T07:16:31.133Z,14.50
2019-03-26T07:19:01.878Z,12.77
2019-03-26T07:21:32.574Z,13.83
2019-03-26T07:24:05.163Z,17.63
2019-03-26T07:26:35.965Z,13.60
2019-03-26T07:29:09.505Z,16.67
2019-03-26T07:31:42.902Z,18.20
2019-03-26T07:34:13.519Z,17.60
2019-03-26T07:36:44.146Z,14.20
2019-03-26T07:39:14.987Z,10.90
2019-03-26T07:41:45.669Z,18.47
2019-03-26T07:44:16.329Z,16.17
2019-03-26T07:46:47.077Z,14.70
2019-03-26T07:49:19.905Z,18.20
2019-03-26T07:51:54.722Z,12.60
2019-03-26T07:54:26.523Z,11.30
2019-03-26T07:56:57.671Z,15.87
2019-03-26T07:59:28.370Z,14.57
2019-03-26T08:01:59.047Z,16.67
2019-03-26T08:04:29.649Z,13.27
2019-03-26T08:07:00.264Z,14.20
2019-03-26T08:09:31.827Z,15.97
2019-03-26T08:12:02.706Z,13.40
2019-03-26T08:14:33.405Z,12.77
2019-03-26T08:17:04.082Z,15.23
2019-03-26T08:19:34.745Z,12.17
2019-03-26T08:22:05.478Z,11.87
2019-03-26T08:24:36.187Z,11.57
2019-03-26T08:27:06.802Z,12.37
2019-03-26T08:29:37.702Z,9.37
2019-03-26T08:32:10.983Z,11.40
2019-03-26T08:34:41.621Z,13.20
2019-03-26T08:37:12.212Z,11.00
2019-03-26T08:39:42.834Z,13.83
2019-03-26T08:42:13.426Z,13.07
2019-03-26T08:44:44.242Z,11.90
2019-03-26T08:47:16.738Z,11.30
2019-03-26T08:49:47.387Z,11.27
2019-03-26T08:52:18.095Z,11.30
2019-03-26T08:54:59.629Z,10.90
2019-03-26T08:57:30.337Z,10.87
2019-03-26T09:00:01.000Z,12.13
2019-03-26T09:02:32.214Z,8.60
2019-03-26T09:05:03.576Z,9.63
2019-03-26T09:07:34.189Z,13.63
2019-03-26T09:10:05.479Z,16.40
2019-03-26T09:12:39.245Z,13.63
2019-03-26T09:15:09.384Z,11.50
2019-03-26T09:17:44.024Z,11.63
2019-03-26T09:20:13.751Z,12.53
2019-03-26T09:22:44.366Z,9.83
2019-03-26T09:25:15.300Z,11.37
2019-03-26T09:27:45.901Z,13.27
2019-03-26T09:30:16.895Z,16.10
2019-03-26T09:32:47.822Z,13.13
2019-03-26T09:35:20.882Z,12.03
2019-03-26T09:37:53.940Z,16.97
2019-03-26T09:40:24.969Z,11.73
2019-03-26T09:42:55.734Z,14.60
2019-03-26T09:45:26.462Z,12.57
2019-03-26T09:47:57.336Z,16.50
2019-03-26T09:50:37.753Z,13.43
2019-03-26T09:53:09.605Z,11.40
2019-03-26T09:55:40.957Z,12.73
2019-03-26T09:58:11.599Z,12.87
2019-03-26T10:00:43.153Z,12.27
2019-03-26T10:03:14.177Z,12.07
2019-03-26T10:05:44.807Z,14.53
2019-03-26T10:08:18.672Z,11.43
2019-03-26T10:10:49.593Z,14.30
2019-03-26T10:13:20.279Z,10.23
2019-03-26T10:15:51.127Z,12.00
2019-03-26T10:18:21.959Z,14.27
2019-03-26T10:20:55.578Z,13.23
2019-03-26T10:23:26.604Z,11.77
2019-03-26T10:25:57.257Z,13.30
2019-03-26T10:28:28.076Z,9.93
2019-03-26T10:30:58.743Z,8.60
2019-03-26T10:33:29.378Z,11.50
2019-03-26T10:36:02.218Z,11.30
2019-03-26T10:38:32.886Z,12.30
2019-03-26T10:41:04.399Z,10.33
2019-03-26T10:43:34.987Z,9.13
2019-03-26T10:46:05.889Z,8.30
2019-03-26T10:48:36.584Z,10.83
2019-03-26T10:51:07.309Z,9.97
2019-03-26T10:53:37.987Z,11.57
2019-03-26T10:56:08.804Z,8.40
2019-03-26T10:58:39.418Z,9.37
2019-03-26T11:01:10.286Z,12.57
2019-03-26T11:03:40.922Z,9.17
2019-03-26T11:06:11.838Z,6.77
2019-03-26T11:08:45.166Z,8.30
2019-03-26T11:11:15.586Z,7.83
2019-03-26T11:13:49.523Z,8.80
2019-03-26T11:16:20.309Z,12.37
2019-03-26T11:18:52.042Z,10.70
2019-03-26T11:21:23.268Z,11.07
2019-03-26T11:23:53.953Z,11.07
2019-03-26T11:26:24.621Z,7.27
2019-03-26T11:28:55.318Z,10.87
2019-03-26T11:31:29.981Z,9.87
2019-03-26T11:33:59.584Z,12.17
2019-03-26T11:36:30.228Z,9.60
2019-03-26T11:39:00.921Z,13.37
2019-03-26T11:41:31.754Z,10.80
2019-03-26T11:44:04.695Z,10.90
2019-03-26T11:46:34.871Z,9.70
2019-03-26T11:49:07.413Z,10.10
2019-03-26T11:51:38.257Z,8.40
2019-03-26T11:54:09.059Z,8.63
2019-03-26T11:56:39.707Z,10.07
2019-03-26T11:59:10.390Z,9.37
2019-03-26T12:01:41.233Z,11.53
2019-03-26T12:04:12.132Z,9.33
2019-03-26T12:06:42.789Z,9.70
2019-03-26T12:09:13.607Z,7.73
2019-03-26T12:11:44.330Z,7.97
2019-03-26T12:14:15.971Z,6.27
2019-03-26T12:16:46.982Z,8.73
2019-03-26T12:19:17.688Z,8.83
2019-03-26T12:21:49.915Z,7.03
2019-03-26T12:24:21.133Z,5.27
2019-03-26T12:26:52.037Z,4.90
2019-03-26T12:29:22.678Z,7.47
2019-03-26T12:31:53.404Z,5.43
2019-03-26T12:34:26.432Z,7.10
2019-03-26T12:36:58.819Z,6.50
2019-03-26T12:39:29.588Z,7.23
2019-03-26T12:42:19.110Z,7.53
2019-03-26T12:44:49.685Z,6.77
2019-03-26T12:47:20.888Z,8.87
2019-03-26T12:49:51.545Z,6.30
2019-03-26T12:52:22.589Z,5.40
2019-03-26T12:54:53.296Z,5.07
2019-03-26T12:57:23.926Z,4.57
2019-03-26T12:59:54.642Z,6.13
2019-03-26T13:02:25.315Z,6.47
2019-03-26T13:04:57.325Z,4.20
2019-03-26T13:07:27.990Z,9.07
2019-03-26T13:10:07.871Z,5.70
2019-03-26T13:12:31.288Z,6.60
2019-03-26T13:15:01.987Z,7.17
2019-03-26T13:17:32.873Z,6.77
2019-03-26T13:20:04.106Z,5.97
2019-03-26T13:22:35.695Z,7.10
2019-03-26T13:25:06.778Z,9.77
2019-03-26T13:27:37.486Z,7.20
2019-03-26T13:30:11.186Z,7.70
2019-03-26T13:32:41.889Z,9.73
2019-03-26T13:35:12.883Z,8.37
2019-03-26T13:37:43.892Z,7.10
2019-03-26T13:40:26.496Z,6.87
2019-03-26T13:42:47.567Z,6.47
2019-03-26T13:45:22.129Z,11.43
2019-03-26T13:47:52.828Z,7.00
2019-03-26T13:50:23.391Z,5.07
2019-03-26T13:52:54.063Z,6.80
2019-03-26T13:55:24.962Z,7.97
2019-03-26T13:57:55.572Z,6.97
2019-03-26T14:00:36.713Z,8.90
2019-03-26T14:03:07.948Z,8.20
2019-03-26T14:05:40.925Z,8.00
2019-03-26T14:08:11.972Z,7.67
2019-03-26T14:10:42.589Z,6.50
2019-03-26T14:13:13.439Z,6.73
2019-03-26T14:15:44.163Z,7.53
2019-03-26T14:18:14.800Z,7.03
2019-03-26T14:20:45.599Z,10.47
2019-03-26T14:23:18.937Z,10.63
2019-03-26T14:25:50.336Z,8.67
2019-03-26T14:28:21.086Z,6.57
2019-03-26T14:30:51.754Z,7.10
2019-03-26T14:33:22.407Z,10.40
2019-03-26T14:35:53.056Z,7.30
2019-03-26T14:38:23.787Z,9.53
2019-03-26T14:40:55.595Z,9.70
2019-03-26T14:43:26.502Z,8.57
2019-03-26T14:45:57.462Z,12.30
2019-03-26T14:48:28.212Z,8.97
2019-03-26T14:50:58.782Z,8.00
2019-03-26T14:53:31.165Z,11.20
2019-03-26T14:56:01.761Z,7.47
2019-03-26T14:58:32.629Z,9.07
2019-03-26T15:01:03.295Z,7.23
2019-03-26T15:03:34.022Z,8.93
2019-03-26T15:06:04.822Z,9.47
2019-03-26T15:08:35.637Z,8.60
2019-03-26T15:11:08.195Z,9.50
2019-03-26T15:13:38.949Z,8.43
2019-03-26T15:16:09.550Z,9.70
2019-03-26T15:18:40.367Z,11.27
2019-03-26T15:21:14.222Z,10.00
2019-03-26T15:23:44.969Z,10.63
2019-03-26T15:26:17.330Z,9.53
2019-03-26T15:28:48.490Z,8.87
2019-03-26T15:31:22.510Z,10.53
2019-03-26T15:33:55.589Z,9.00
2019-03-26T15:36:26.191Z,9.27
2019-03-26T15:38:56.929Z,8.87
2019-03-26T15:41:30.157Z,8.80
2019-03-26T15:43:59.989Z,9.37
2019-03-26T15:49:12.297Z,10.07
2019-03-26T15:51:43.054Z,10.87
2019-03-26T15:54:14.351Z,13.57
2019-03-26T15:56:45.085Z,11.53
2019-03-26T15:59:15.767Z,9.93
2019-03-26T16:01:46.461Z,9.37
2019-03-26T16:04:17.836Z,9.37
2019-03-26T16:06:48.598Z,12.27
2019-03-26T16:09:22.705Z,9.90
2019-03-26T16:11:55.155Z,9.93
2019-03-26T16:14:28.180Z,10.40
2019-03-26T16:16:58.450Z,9.80
2019-03-26T16:19:32.747Z,11.40
2019-03-26T16:22:02.249Z,9.43
2019-03-26T16:24:33.026Z,12.13
2019-03-26T16:27:03.715Z,10.87
2019-03-26T16:29:35.812Z,8.57
2019-03-26T16:32:08.157Z,11.83
2019-03-26T16:34:39.142Z,13.97
2019-03-26T16:37:09.948Z,9.43
2019-03-26T16:39:40.824Z,10.20
2019-03-26T16:42:11.542Z,9.30
2019-03-26T16:44:42.355Z,10.30
2019-03-26T16:47:13.035Z,11.23
2019-03-26T16:49:43.734Z,10.43
2019-03-26T16:52:14.435Z,12.67
2019-03-26T16:54:45.180Z,10.73
2019-03-26T16:57:15.944Z,12.43
2019-03-26T16:59:46.739Z,9.87
2019-03-26T17:02:17.526Z,10.67
2019-03-26T17:04:48.167Z,10.77
2019-03-26T17:07:18.856Z,12.73
2019-03-26T17:09:49.619Z,12.20
2019-03-26T17:12:20.391Z,12.77
2019-03-26T17:14:51.034Z,12.83
2019-03-26T17:17:21.645Z,14.53
2019-03-26T17:19:53.539Z,14.53
2019-03-26T17:22:24.231Z,14.10
2019-03-26T17:24:54.967Z,16.27
2019-03-26T17:27:28.898Z,15.37
2019-03-26T17:29:58.396Z,16.83
2019-03-26T17:32:29.448Z,19.53
2019-03-26T17:35:00.341Z,13.47
2019-03-26T17:37:31.157Z,13.27
2019-03-26T17:40:01.814Z,13.23
2019-03-26T17:42:33.610Z,15.43
2019-03-26T17:45:05.543Z,14.53
2019-03-26T17:47:36.200Z,12.77
2019-03-26T17:50:07.617Z,15.87
2019-03-26T17:52:38.951Z,14.53
2019-03-26T17:55:09.983Z,15.37
2019-03-26T17:57:40.597Z,15.23
2019-03-26T18:00:14.273Z,16.87
2019-03-26T18:02:44.982Z,18.53
2019-03-26T18:05:26.739Z,16.77
2019-03-26T18:07:57.886Z,17.13
2019-03-26T18:10:28.650Z,16.83
2019-03-26T18:12:59.431Z,26.50
2019-03-26T18:15:30.412Z,24.20
2019-03-26T18:18:01.038Z,18.20
2019-03-26T18:20:33.063Z,18.60
2019-03-26T18:23:04.006Z,20.33
2019-03-26T18:25:34.777Z,21.03
2019-03-26T18:28:05.771Z,21.23
2019-03-26T18:30:36.593Z,20.43
2019-03-26T18:33:07.439Z,20.53
2019-03-26T18:35:40.578Z,21.87
2019-03-26T18:38:11.197Z,21.33
2019-03-26T18:40:42.351Z,21.57
2019-03-26T18:43:13.126Z,18.77
2019-03-26T18:45:43.802Z,23.43
2019-03-26T18:48:14.523Z,20.53
2019-03-26T18:50:45.519Z,20.40
2019-03-26T18:53:16.204Z,19.33
2019-03-26T18:55:47.020Z,24.77
2019-03-26T18:58:20.783Z,19.97
2019-03-26T19:00:51.492Z,17.47
2019-03-26T19:03:22.352Z,19.57
2019-03-26T19:05:52.999Z,23.17
2019-03-26T19:08:23.758Z,20.27
2019-03-26T19:10:57.388Z,19.60
2019-03-26T19:13:28.155Z,22.73
2019-03-26T19:15:58.869Z,25.80
2019-03-26T19:18:29.581Z,24.17
2019-03-26T19:21:02.306Z,26.60
2019-03-26T19:23:33.458Z,24.87
2019-03-26T19:26:04.236Z,25.57
2019-03-26T19:28:35.174Z,23.20
2019-03-26T19:31:07.530Z,24.67
2019-03-26T19:33:38.195Z,24.37
2019-03-26T19:36:09.044Z,25.70
2019-03-26T19:38:39.766Z,28.03
2019-03-26T19:41:11.055Z,23.40
2019-03-26T19:43:41.685Z,28.70
2019-03-26T19:46:12.468Z,24.83
2019-03-26T19:48:45.606Z,22.10
2019-03-26T19:51:16.262Z,23.43
2019-03-26T19:53:46.897Z,24.47
2019-03-26T19:56:17.556Z,27.77
2019-03-26T19:58:48.689Z,24.67
2019-03-26T20:01:19.340Z,27.23
2019-03-26T20:03:53.504Z,22.40
2019-03-26T20:06:24.011Z,26.13
2019-03-26T20:08:57.506Z,24.53
2019-03-26T20:11:28.268Z,25.43
2019-03-26T20:13:58.964Z,26.60
2019-03-26T20:16:41.325Z,28.87
2019-03-26T20:19:03.247Z,26.40
2019-03-26T20:21:34.385Z,26.50
2019-03-26T20:24:06.368Z,27.17
2019-03-26T20:26:38.851Z,23.03
2019-03-26T20:29:11.426Z,31.47
2019-03-26T20:31:44.129Z,24.87
2019-03-26T20:34:14.853Z,26.10
2019-03-26T20:36:45.574Z,31.83
2019-03-26T20:39:20.200Z,31.83
2019-03-26T20:41:50.912Z,25.37
2019-03-26T20:44:22.596Z,29.00
2019-03-26T20:46:54.353Z,27.20
2019-03-26T20:49:38.758Z,29.67
2019-03-26T20:52:10.377Z,24.97
2019-03-26T20:54:41.129Z,29.93
2019-03-26T20:57:11.741Z,27.43
2019-03-26T20:59:42.594Z,24.17
2019-03-26T21:02:13.280Z,29.80
2019-03-26T21:04:44.182Z,29.80
2019-03-26T21:07:17.397Z,33.10
2019-03-26T21:09:48.113Z,25.67
2019-03-26T21:12:19.146Z,30.23
2019-03-26T21:14:49.898Z,23.57
2019-03-26T21:17:20.595Z,35.90
2019-03-26T21:19:51.273Z,25.20
2019-03-26T21:22:22.131Z,31.70
2019-03-26T21:24:52.734Z,30.33
2019-03-26T21:27:23.442Z,32.83
2019-03-26T21:29:54.327Z,31.30
2019-03-26T21:32:24.957Z,26.77
2019-03-26T21:34:56.096Z,28.37
2019-03-26T21:37:28.557Z,30.33
2019-03-26T21:40:01.753Z,29.67
2019-03-26T21:42:32.443Z,36.80
2019-03-26T21:45:03.558Z,35.30
2019-03-26T21:47:34.235Z,26.80
2019-03-26T21:50:05.423Z,25.67
2019-03-26T21:52:36.062Z,37.40
2019-03-26T21:55:07.765Z,29.93
2019-03-26T21:57:38.635Z,29.80
2019-03-26T22:00:10.534Z,33.90
2019-03-26T22:02:41.231Z,29.93
2019-03-26T22:05:12.206Z,29.37
2019-03-26T22:07:42.845Z,29.90
2019-03-26T22:10:14.014Z,26.37
2019-03-26T22:12:44.722Z,33.03
2019-03-26T22:15:17.491Z,35.07
2019-03-26T22:17:50.947Z,29.00
2019-03-26T22:20:21.561Z,36.20
2019-03-26T22:22:52.251Z,34.80
2019-03-26T22:25:23.179Z,35.87
2019-03-26T22:27:53.843Z,39.40
2019-03-26T22:30:24.466Z,40.47
2019-03-26T22:32:57.771Z,36.20
2019-03-26T22:35:28.838Z,33.00
2019-03-26T22:37:59.511Z,34.70
2019-03-26T22:40:30.118Z,40.43
2019-03-26T22:43:01.044Z,33.57
2019-03-26T22:45:31.877Z,35.63
2019-03-26T22:48:02.562Z,34.90
2019-03-26T22:50:33.165Z,33.80
2019-03-26T22:53:03.810Z,35.17
2019-03-26T22:55:34.620Z,36.73
2019-03-26T22:58:05.256Z,33.97
2019-03-26T23:00:37.389Z,39.50
2019-03-26T23:03:08.061Z,35.70
2019-03-26T23:05:38.873Z,37.60
2019-03-26T23:08:09.637Z,43.50
2019-03-26T23:10:40.267Z,35.63
2019-03-26T23:13:13.906Z,38.03
2019-03-26T23:15:44.540Z,36.37
2019-03-26T23:18:15.317Z,40.73
2019-03-26T23:20:46.007Z,38.53
2019-03-26T23:23:16.723Z,36.77
2019-03-26T23:25:48.869Z,38.20
2019-03-26T23:28:19.499Z,37.57
2019-03-26T23:30:50.707Z,37.87
2019-03-26T23:33:21.466Z,36.70
2019-03-26T23:35:53.627Z,34.03
2019-03-26T23:38:24.229Z,40.37
2019-03-26T23:40:55.938Z,38.50
2019-03-26T23:43:26.881Z,40.27
2019-03-26T23:45:57.602Z,37.37
2019-03-26T23:48:30.906Z,38.50
2019-03-26T23:51:01.105Z,35.57
2019-03-26T23:53:34.614Z,32.10
2019-03-26T23:56:05.442Z,31.13
2019-03-26T23:58:36.160Z,36.03
